sensor_id;sensor_type;location;lat;lon;timestamp;pressure;altitude;pressure_sealevel;temperature;humidity
12801;BME280;6464;42.494;27.470;2022-07-06T06:08:29;101017.06;;;22.42;100.00
12801;BME280;6464;42.494;27.470;2022-07-06T06:11:00;100986.16;;;22.49;100.00
12801;BME280;6464;42.494;27.470;2022-07-06T06:13:29;101024.69;;;22.91;100.00
12801;BME280;6464;42.494;27.470;2022-07-06T06:15:56;101043.56;;;23.18;100.00
12801;BME280;6464;42.494;27.470;2022-07-06T06:18:23;101029.75;;;23.37;100.00
12801;BME280;6464;42.494;27.470;2022-07-06T06:20:50;101034.28;;;23.49;100.00
12801;BME280;6464;42.494;27.470;2022-07-06T06:23:17;101064.44;;;23.54;100.00
12801;BME280;6464;42.494;27.470;2022-07-06T06:25:46;101035.50;;;23.58;100.00
12801;BME280;6464;42.494;27.470;2022-07-06T06:28:13;101047.75;;;23.76;100.00
12801;BME280;6464;42.494;27.470;2022-07-06T07:11:19;101262.25;;;24.97;100.00
12801;BME280;6464;42.494;27.470;2022-07-06T07:17:08;101361.47;;;25.06;100.00
12801;BME280;6464;42.494;27.470;2022-07-06T07:19:36;101356.13;;;25.31;100.00
12801;BME280;6464;42.494;27.470;2022-07-06T07:22:12;101321.06;;;25.04;100.00
12801;BME280;6464;42.494;27.470;2022-07-06T07:24:40;101309.50;;;24.90;100.00
12801;BME280;6464;42.494;27.470;2022-07-06T07:27:11;101350.28;;;25.50;100.00
12801;BME280;6464;42.494;27.470;2022-07-06T07:29:39;101291.56;;;25.16;100.00
12801;BME280;6464;42.494;27.470;2022-07-06T07:32:09;101355.22;;;25.69;100.00
12801;BME280;6464;42.494;27.470;2022-07-06T07:34:36;101364.75;;;25.62;100.00
12801;BME280;6464;42.494;27.470;2022-07-06T07:37:03;101375.66;;;25.73;100.00
12801;BME280;6464;42.494;27.470;2022-07-06T07:39:53;101351.16;;;25.63;100.00
12801;BME280;6464;42.494;27.470;2022-07-06T07:42:27;101414.78;;;26.30;100.00
12801;BME280;6464;42.494;27.470;2022-07-06T07:44:56;101418.34;;;26.06;100.00
12801;BME280;6464;42.494;27.470;2022-07-06T07:47:23;101385.59;;;25.85;100.00
12801;BME280;6464;42.494;27.470;2022-07-06T07:49:50;101417.16;;;25.98;100.00
12801;BME280;6464;42.494;27.470;2022-07-06T07:52:17;101365.41;;;25.78;100.00
12801;BME280;6464;42.494;27.470;2022-07-06T07:54:44;101399.03;;;26.24;100.00
12801;BME280;6464;42.494;27.470;2022-07-06T07:57:11;101390.78;;;26.25;100.00
12801;BME280;6464;42.494;27.470;2022-07-06T07:59:40;101433.44;;;26.58;100.00
12801;BME280;6464;42.494;27.470;2022-07-06T08:02:07;101446.06;;;26.47;100.00
12801;BME280;6464;42.494;27.470;2022-07-06T08:04:34;101379.53;;;26.31;100.00
12801;BME280;6464;42.494;27.470;2022-07-06T08:07:01;101438.84;;;26.82;100.00
12801;BME280;6464;42.494;27.470;2022-07-06T08:09:28;101333.09;;;26.13;100.00
12801;BME280;6464;42.494;27.470;2022-07-06T08:11:55;101326.44;;;26.30;100.00
12801;BME280;6464;42.494;27.470;2022-07-06T08:14:23;101410.13;;;26.69;100.00
12801;BME280;6464;42.494;27.470;2022-07-06T08:16:52;101431.03;;;26.90;100.00
12801;BME280;6464;42.494;27.470;2022-07-06T08:19:34;101418.38;;;26.67;100.00
12801;BME280;6464;42.494;27.470;2022-07-06T08:22:01;101391.13;;;26.81;100.00
12801;BME280;6464;42.494;27.470;2022-07-06T08:24:32;101396.13;;;26.99;100.00
12801;BME280;6464;42.494;27.470;2022-07-06T08:27:00;101399.09;;;26.48;100.00
12801;BME280;6464;42.494;27.470;2022-07-06T08:29:27;101433.63;;;26.68;100.00
12801;BME280;6464;42.494;27.470;2022-07-06T08:31:56;101424.25;;;26.61;100.00
12801;BME280;6464;42.494;27.470;2022-07-06T08:34:29;101418.88;;;26.72;100.00
12801;BME280;6464;42.494;27.470;2022-07-06T08:36:56;101360.88;;;26.39;100.00
12801;BME280;6464;42.494;27.470;2022-07-06T08:39:27;101419.66;;;26.74;100.00
12801;BME280;6464;42.494;27.470;2022-07-06T08:41:55;101437.81;;;26.72;100.00
12801;BME280;6464;42.494;27.470;2022-07-06T08:44:25;101368.19;;;26.98;100.00
12801;BME280;6464;42.494;27.470;2022-07-06T08:46:52;101471.00;;;27.92;100.00
12801;BME280;6464;42.494;27.470;2022-07-06T08:49:22;101477.13;;;27.72;100.00
12801;BME280;6464;42.494;27.470;2022-07-06T08:51:50;101388.84;;;27.46;100.00
12801;BME280;6464;42.494;27.470;2022-07-06T08:54:18;101393.44;;;27.67;100.00
12801;BME280;6464;42.494;27.470;2022-07-06T08:56:47;101446.97;;;27.88;100.00
12801;BME280;6464;42.494;27.470;2022-07-06T08:59:20;101400.75;;;27.78;100.00
12801;BME280;6464;42.494;27.470;2022-07-06T09:01:47;101449.81;;;28.75;100.00
12801;BME280;6464;42.494;27.470;2022-07-06T09:04:16;101458.34;;;28.70;100.00
12801;BME280;6464;42.494;27.470;2022-07-06T09:06:46;101393.72;;;28.09;100.00
12801;BME280;6464;42.494;27.470;2022-07-06T09:09:19;101444.16;;;28.78;100.00
12801;BME280;6464;42.494;27.470;2022-07-06T09:11:46;101439.25;;;29.04;100.00
12801;BME280;6464;42.494;27.470;2022-07-06T09:14:13;101452.97;;;29.44;100.00
12801;BME280;6464;42.494;27.470;2022-07-06T09:16:40;101455.63;;;29.13;100.00
12801;BME280;6464;42.494;27.470;2022-07-06T09:19:08;101445.22;;;28.98;100.00
12801;BME280;6464;42.494;27.470;2022-07-06T09:21:36;101465.78;;;29.32;100.00
12801;BME280;6464;42.494;27.470;2022-07-06T09:24:10;101451.22;;;28.69;100.00
12801;BME280;6464;42.494;27.470;2022-07-06T09:26:38;101437.56;;;28.48;100.00
12801;BME280;6464;42.494;27.470;2022-07-06T09:29:06;101451.78;;;28.84;100.00
12801;BME280;6464;42.494;27.470;2022-07-06T09:31:33;101475.00;;;29.41;100.00
12801;BME280;6464;42.494;27.470;2022-07-06T09:34:02;101478.22;;;29.14;100.00
12801;BME280;6464;42.494;27.470;2022-07-06T09:36:39;101446.84;;;29.21;100.00
12801;BME280;6464;42.494;27.470;2022-07-06T09:39:18;101469.25;;;29.76;100.00
12801;BME280;6464;42.494;27.470;2022-07-06T09:41:45;101474.13;;;30.03;100.00
12801;BME280;6464;42.494;27.470;2022-07-06T09:44:12;101464.41;;;30.51;100.00
12801;BME280;6464;42.494;27.470;2022-07-06T09:46:43;101442.34;;;30.44;100.00
12801;BME280;6464;42.494;27.470;2022-07-06T09:49:12;101433.00;;;30.27;100.00
12801;BME280;6464;42.494;27.470;2022-07-06T09:51:39;101450.88;;;30.20;100.00
12801;BME280;6464;42.494;27.470;2022-07-06T09:54:07;101441.84;;;31.37;100.00
12801;BME280;6464;42.494;27.470;2022-07-06T09:56:39;101466.50;;;31.45;100.00
12801;BME280;6464;42.494;27.470;2022-07-06T09:59:10;101487.31;;;32.13;100.00
12801;BME280;6464;42.494;27.470;2022-07-06T10:01:37;101472.38;;;32.44;100.00
12801;BME280;6464;42.494;27.470;2022-07-06T10:04:05;101508.94;;;33.24;100.00
12801;BME280;6464;42.494;27.470;2022-07-06T10:06:32;101518.22;;;35.86;100.00
12801;BME280;6464;42.494;27.470;2022-07-06T10:08:59;101465.53;;;33.91;100.00
12801;BME280;6464;42.494;27.470;2022-07-06T10:11:28;101490.41;;;34.40;100.00
12801;BME280;6464;42.494;27.470;2022-07-06T10:13:57;101529.25;;;36.80;100.00
12801;BME280;6464;42.494;27.470;2022-07-06T10:16:25;101536.50;;;36.73;100.00
12801;BME280;6464;42.494;27.470;2022-07-06T10:18:52;101539.16;;;36.90;100.00
12801;BME280;6464;42.494;27.470;2022-07-06T10:21:21;101518.78;;;37.07;100.00
12801;BME280;6464;42.494;27.470;2022-07-06T10:23:49;101506.34;;;36.88;100.00
12801;BME280;6464;42.494;27.470;2022-07-06T10:26:17;101486.72;;;36.29;100.00
12801;BME280;6464;42.494;27.470;2022-07-06T10:28:44;101511.69;;;37.13;100.00
12801;BME280;6464;42.494;27.470;2022-07-06T10:31:15;101534.53;;;38.71;100.00
12801;BME280;6464;42.494;27.470;2022-07-06T10:33:43;101554.84;;;39.85;100.00
12801;BME280;6464;42.494;27.470;2022-07-06T10:36:11;101450.63;;;37.17;100.00
12801;BME280;6464;42.494;27.470;2022-07-06T10:38:39;101455.00;;;35.30;100.00
12801;BME280;6464;42.494;27.470;2022-07-06T10:41:07;101415.53;;;34.15;100.00
12801;BME280;6464;42.494;27.470;2022-07-06T10:43:34;101396.13;;;32.96;100.00
12801;BME280;6464;42.494;27.470;2022-07-06T10:46:11;101417.88;;;33.24;100.00
12801;BME280;6464;42.494;27.470;2022-07-06T10:48:41;101335.50;;;32.30;100.00
12801;BME280;6464;42.494;27.470;2022-07-06T10:51:10;101394.72;;;32.74;100.00
12801;BME280;6464;42.494;27.470;2022-07-06T10:53:39;101423.06;;;33.87;100.00
12801;BME280;6464;42.494;27.470;2022-07-06T10:56:08;101406.19;;;33.40;100.00
12801;BME280;6464;42.494;27.470;2022-07-06T10:58:47;101422.19;;;33.53;100.00
12801;BME280;6464;42.494;27.470;2022-07-06T11:01:17;101397.59;;;33.35;100.00
12801;BME280;6464;42.494;27.470;2022-07-06T11:03:46;101408.00;;;33.83;100.00
12801;BME280;6464;42.494;27.470;2022-07-06T11:06:15;101394.78;;;33.00;100.00
12801;BME280;6464;42.494;27.470;2022-07-06T11:08:46;101372.09;;;32.64;100.00
12801;BME280;6464;42.494;27.470;2022-07-06T11:11:14;101378.19;;;33.20;100.00
12801;BME280;6464;42.494;27.470;2022-07-06T11:13:44;101357.03;;;32.60;100.00
12801;BME280;6464;42.494;27.470;2022-07-06T11:16:14;101366.44;;;32.84;100.00
12801;BME280;6464;42.494;27.470;2022-07-06T11:18:47;101351.13;;;31.55;100.00
12801;BME280;6464;42.494;27.470;2022-07-06T11:21:16;101329.78;;;31.50;100.00
12801;BME280;6464;42.494;27.470;2022-07-06T11:23:46;101328.41;;;31.64;100.00
12801;BME280;6464;42.494;27.470;2022-07-06T11:26:14;101339.97;;;31.76;100.00
12801;BME280;6464;42.494;27.470;2022-07-06T11:28:41;101358.09;;;32.67;100.00
12801;BME280;6464;42.494;27.470;2022-07-06T11:31:08;101323.91;;;31.45;100.00
12801;BME280;6464;42.494;27.470;2022-07-06T11:33:37;101306.19;;;31.59;100.00
12801;BME280;6464;42.494;27.470;2022-07-06T11:36:19;101309.38;;;31.91;100.00
12801;BME280;6464;42.494;27.470;2022-07-06T11:38:47;101296.59;;;31.55;100.00
12801;BME280;6464;42.494;27.470;2022-07-06T11:41:15;101294.56;;;31.29;100.00
12801;BME280;6464;42.494;27.470;2022-07-06T11:43:43;101312.34;;;31.98;100.00
12801;BME280;6464;42.494;27.470;2022-07-06T11:46:24;101291.00;;;31.29;100.00
12801;BME280;6464;42.494;27.470;2022-07-06T11:48:53;101296.50;;;31.74;100.00
12801;BME280;6464;42.494;27.470;2022-07-06T11:51:23;101305.56;;;32.02;100.00
12801;BME280;6464;42.494;27.470;2022-07-06T11:53:53;101319.94;;;32.93;100.00
12801;BME280;6464;42.494;27.470;2022-07-06T11:56:20;101353.59;;;34.14;100.00
12801;BME280;6464;42.494;27.470;2022-07-06T11:58:52;101341.06;;;33.61;100.00
12801;BME280;6464;42.494;27.470;2022-07-06T12:01:20;101340.69;;;33.56;100.00
12801;BME280;6464;42.494;27.470;2022-07-06T12:03:48;101347.66;;;34.35;100.00
12801;BME280;6464;42.494;27.470;2022-07-06T12:06:17;101315.97;;;33.14;100.00
12801;BME280;6464;42.494;27.470;2022-07-06T12:08:48;101313.28;;;32.78;100.00
12801;BME280;6464;42.494;27.470;2022-07-06T12:11:22;101236.69;;;32.62;100.00
12801;BME280;6464;42.494;27.470;2022-07-06T12:13:50;101337.63;;;33.33;100.00
12801;BME280;6464;42.494;27.470;2022-07-06T12:16:18;101298.00;;;32.14;100.00
12801;BME280;6464;42.494;27.470;2022-07-06T12:18:47;101302.97;;;32.46;100.00
12801;BME280;6464;42.494;27.470;2022-07-06T12:21:15;101281.97;;;32.11;100.00
12801;BME280;6464;42.494;27.470;2022-07-06T12:23:46;101274.38;;;32.05;100.00
12801;BME280;6464;42.494;27.470;2022-07-06T12:26:14;101270.66;;;31.78;100.00
12801;BME280;6464;42.494;27.470;2022-07-06T12:28:42;101311.69;;;31.77;100.00
12801;BME280;6464;42.494;27.470;2022-07-06T12:31:10;101299.84;;;32.41;100.00
12801;BME280;6464;42.494;27.470;2022-07-06T12:33:37;101301.09;;;32.64;100.00
12801;BME280;6464;42.494;27.470;2022-07-06T12:36:12;101320.03;;;32.66;100.00
12801;BME280;6464;42.494;27.470;2022-07-06T12:38:48;101350.22;;;33.26;100.00
12801;BME280;6464;42.494;27.470;2022-07-06T12:41:29;101321.47;;;32.78;100.00
12801;BME280;6464;42.494;27.470;2022-07-06T12:44:03;101314.75;;;32.19;100.00
12801;BME280;6464;42.494;27.470;2022-07-06T12:46:31;101292.50;;;32.41;100.00
12801;BME280;6464;42.494;27.470;2022-07-06T12:48:59;101323.09;;;33.33;100.00
12801;BME280;6464;42.494;27.470;2022-07-06T12:51:27;101311.19;;;32.72;100.00
12801;BME280;6464;42.494;27.470;2022-07-06T12:54:13;101285.03;;;31.98;100.00
12801;BME280;6464;42.494;27.470;2022-07-06T12:57:07;101262.59;;;32.04;100.00
12801;BME280;6464;42.494;27.470;2022-07-06T12:59:37;101263.16;;;32.61;100.00
12801;BME280;6464;42.494;27.470;2022-07-06T13:02:06;101319.63;;;33.91;100.00
12801;BME280;6464;42.494;27.470;2022-07-06T13:04:35;101321.38;;;33.58;100.00
12801;BME280;6464;42.494;27.470;2022-07-06T13:07:04;101281.97;;;32.46;100.00
12801;BME280;6464;42.494;27.470;2022-07-06T13:09:32;101300.13;;;33.43;100.00
12801;BME280;6464;42.494;27.470;2022-07-06T13:11:59;101290.31;;;33.75;100.00
12801;BME280;6464;42.494;27.470;2022-07-06T13:14:26;101269.31;;;33.84;100.00
12801;BME280;6464;42.494;27.470;2022-07-06T13:16:53;101264.19;;;32.42;100.00
12801;BME280;6464;42.494;27.470;2022-07-06T13:19:20;101239.84;;;32.13;100.00
12801;BME280;6464;42.494;27.470;2022-07-06T13:21:47;101211.75;;;32.57;100.00
12801;BME280;6464;42.494;27.470;2022-07-06T13:24:14;101229.06;;;32.65;100.00
12801;BME280;6464;42.494;27.470;2022-07-06T13:26:43;101224.81;;;32.45;100.00
12801;BME280;6464;42.494;27.470;2022-07-06T13:29:10;101184.88;;;31.45;100.00
12801;BME280;6464;42.494;27.470;2022-07-06T13:31:37;101146.50;;;31.38;100.00
12801;BME280;6464;42.494;27.470;2022-07-06T13:34:06;101201.25;;;31.90;100.00
12801;BME280;6464;42.494;27.470;2022-07-06T13:36:33;101212.38;;;31.34;100.00
12801;BME280;6464;42.494;27.470;2022-07-06T13:39:01;101206.75;;;31.26;100.00
12801;BME280;6464;42.494;27.470;2022-07-06T13:41:28;101190.78;;;31.40;100.00
12801;BME280;6464;42.494;27.470;2022-07-06T13:43:56;101215.78;;;31.26;100.00
12801;BME280;6464;42.494;27.470;2022-07-06T13:46:24;101214.91;;;32.26;100.00
12801;BME280;6464;42.494;27.470;2022-07-06T13:48:52;101263.53;;;32.13;100.00
12801;BME280;6464;42.494;27.470;2022-07-06T13:51:19;101195.97;;;32.07;100.00
12801;BME280;6464;42.494;27.470;2022-07-06T13:53:46;101247.88;;;31.97;100.00
12801;BME280;6464;42.494;27.470;2022-07-06T13:56:13;101244.59;;;32.47;100.00
12801;BME280;6464;42.494;27.470;2022-07-06T13:58:40;101210.19;;;32.01;100.00
12801;BME280;6464;42.494;27.470;2022-07-06T14:01:09;101223.53;;;32.39;100.00
12801;BME280;6464;42.494;27.470;2022-07-06T14:03:36;101186.31;;;31.67;100.00
12801;BME280;6464;42.494;27.470;2022-07-06T14:06:05;101140.41;;;31.17;100.00
12801;BME280;6464;42.494;27.470;2022-07-06T14:08:33;101229.22;;;32.64;100.00
12801;BME280;6464;42.494;27.470;2022-07-06T14:11:01;101236.38;;;33.17;100.00
12801;BME280;6464;42.494;27.470;2022-07-06T14:13:28;101239.34;;;33.58;100.00
12801;BME280;6464;42.494;27.470;2022-07-06T14:15:56;101240.94;;;33.85;100.00
12801;BME280;6464;42.494;27.470;2022-07-06T14:18:25;101220.72;;;33.27;100.00
12801;BME280;6464;42.494;27.470;2022-07-06T14:20:52;101201.63;;;32.75;100.00
12801;BME280;6464;42.494;27.470;2022-07-06T14:23:21;101215.59;;;32.72;100.00
12801;BME280;6464;42.494;27.470;2022-07-06T14:25:49;101199.19;;;32.64;100.00
12801;BME280;6464;42.494;27.470;2022-07-06T14:28:16;101173.81;;;32.54;100.00
12801;BME280;6464;42.494;27.470;2022-07-06T14:30:44;101202.09;;;32.27;100.00
12801;BME280;6464;42.494;27.470;2022-07-06T14:33:13;101185.66;;;32.36;100.00
12801;BME280;6464;42.494;27.470;2022-07-06T14:35:44;101186.69;;;32.61;100.00
12801;BME280;6464;42.494;27.470;2022-07-06T14:38:13;101168.53;;;32.34;100.00
12801;BME280;6464;42.494;27.470;2022-07-06T14:40:41;101179.84;;;32.83;100.00
12801;BME280;6464;42.494;27.470;2022-07-06T14:43:08;101167.09;;;32.40;100.00
12801;BME280;6464;42.494;27.470;2022-07-06T14:45:35;101180.81;;;32.74;100.00
12801;BME280;6464;42.494;27.470;2022-07-06T14:48:02;101164.94;;;32.52;100.00
12801;BME280;6464;42.494;27.470;2022-07-06T14:50:31;101154.78;;;32.18;100.00
12801;BME280;6464;42.494;27.470;2022-07-06T14:52:59;101146.47;;;31.84;100.00
12801;BME280;6464;42.494;27.470;2022-07-06T14:55:26;101148.56;;;32.08;100.00
12801;BME280;6464;42.494;27.470;2022-07-06T14:57:53;101131.25;;;31.99;100.00
12801;BME280;6464;42.494;27.470;2022-07-06T15:00:20;101154.94;;;32.60;100.00
12801;BME280;6464;42.494;27.470;2022-07-06T15:02:48;101149.31;;;32.62;100.00
12801;BME280;6464;42.494;27.470;2022-07-06T15:05:15;101136.94;;;31.70;100.00
12801;BME280;6464;42.494;27.470;2022-07-06T15:07:42;101085.50;;;31.75;100.00
12801;BME280;6464;42.494;27.470;2022-07-06T15:10:10;101161.53;;;32.49;100.00
12801;BME280;6464;42.494;27.470;2022-07-06T15:12:37;101170.22;;;32.09;100.00
12801;BME280;6464;42.494;27.470;2022-07-06T15:15:05;101149.84;;;32.39;100.00
12801;BME280;6464;42.494;27.470;2022-07-06T15:17:32;101175.13;;;32.06;100.00
12801;BME280;6464;42.494;27.470;2022-07-06T15:19:59;101182.75;;;32.20;100.00
12801;BME280;6464;42.494;27.470;2022-07-06T15:22:27;101180.91;;;31.85;100.00
12801;BME280;6464;42.494;27.470;2022-07-06T15:24:54;101175.75;;;31.99;100.00
12801;BME280;6464;42.494;27.470;2022-07-06T15:27:22;101177.25;;;32.12;100.00
12801;BME280;6464;42.494;27.470;2022-07-06T15:29:49;101113.25;;;31.53;100.00
12801;BME280;6464;42.494;27.470;2022-07-06T15:32:16;101164.88;;;31.54;100.00
12801;BME280;6464;42.494;27.470;2022-07-06T15:34:43;101166.69;;;31.63;100.00
12801;BME280;6464;42.494;27.470;2022-07-06T15:37:10;101179.03;;;32.03;100.00
12801;BME280;6464;42.494;27.470;2022-07-06T15:39:37;101179.78;;;31.60;100.00
12801;BME280;6464;42.494;27.470;2022-07-06T15:42:05;101157.84;;;31.34;100.00
12801;BME280;6464;42.494;27.470;2022-07-06T15:44:34;101185.97;;;31.34;100.00
12801;BME280;6464;42.494;27.470;2022-07-06T15:47:04;101155.38;;;31.03;100.00
12801;BME280;6464;42.494;27.470;2022-07-06T15:49:32;101159.47;;;31.17;100.00
12801;BME280;6464;42.494;27.470;2022-07-06T15:52:00;101163.88;;;31.00;100.00
12801;BME280;6464;42.494;27.470;2022-07-06T15:54:27;101183.81;;;31.28;100.00
12801;BME280;6464;42.494;27.470;2022-07-06T15:56:54;101170.06;;;30.92;100.00
12801;BME280;6464;42.494;27.470;2022-07-06T15:59:21;101176.41;;;30.83;100.00
12801;BME280;6464;42.494;27.470;2022-07-06T16:01:50;101177.91;;;30.49;100.00
12801;BME280;6464;42.494;27.470;2022-07-06T16:04:17;101181.59;;;30.77;100.00
12801;BME280;6464;42.494;27.470;2022-07-06T16:06:45;101194.16;;;30.87;100.00
12801;BME280;6464;42.494;27.470;2022-07-06T16:09:12;101194.34;;;30.66;100.00
12801;BME280;6464;42.494;27.470;2022-07-06T16:11:39;101194.09;;;31.07;100.00
12801;BME280;6464;42.494;27.470;2022-07-06T16:14:06;101210.38;;;31.99;100.00
12801;BME280;6464;42.494;27.470;2022-07-06T16:16:34;101235.19;;;32.41;100.00
12801;BME280;6464;42.494;27.470;2022-07-06T16:19:03;101195.25;;;32.40;100.00
12801;BME280;6464;42.494;27.470;2022-07-06T16:21:30;101234.75;;;32.98;100.00
12801;BME280;6464;42.494;27.470;2022-07-06T16:23:57;101211.69;;;32.31;100.00
12801;BME280;6464;42.494;27.470;2022-07-06T16:26:24;101221.41;;;32.33;100.00
12801;BME280;6464;42.494;27.470;2022-07-06T16:28:54;101206.16;;;32.40;100.00
12801;BME280;6464;42.494;27.470;2022-07-06T16:31:22;101142.69;;;31.67;100.00
12801;BME280;6464;42.494;27.470;2022-07-06T16:33:49;101170.91;;;31.58;100.00
12801;BME280;6464;42.494;27.470;2022-07-06T16:36:18;101141.41;;;31.16;100.00
12801;BME280;6464;42.494;27.470;2022-07-06T16:38:45;101165.47;;;30.93;100.00
12801;BME280;6464;42.494;27.470;2022-07-06T16:41:12;101157.44;;;30.91;100.00
12801;BME280;6464;42.494;27.470;2022-07-06T16:43:39;101167.47;;;31.28;100.00
12801;BME280;6464;42.494;27.470;2022-07-06T16:46:06;101185.72;;;31.73;100.00
12801;BME280;6464;42.494;27.470;2022-07-06T16:48:33;101185.03;;;31.89;100.00
12801;BME280;6464;42.494;27.470;2022-07-06T16:51:00;101181.81;;;31.58;100.00
12801;BME280;6464;42.494;27.470;2022-07-06T16:53:29;101154.00;;;31.27;100.00
12801;BME280;6464;42.494;27.470;2022-07-06T16:55:56;101139.19;;;31.02;100.00
12801;BME280;6464;42.494;27.470;2022-07-06T16:58:23;101096.78;;;30.15;100.00
12801;BME280;6464;42.494;27.470;2022-07-06T17:00:51;101098.91;;;29.63;100.00
12801;BME280;6464;42.494;27.470;2022-07-06T17:03:18;101047.91;;;28.97;100.00
12801;BME280;6464;42.494;27.470;2022-07-06T17:05:45;101045.34;;;29.15;100.00
12801;BME280;6464;42.494;27.470;2022-07-06T17:08:12;101049.53;;;29.29;100.00
12801;BME280;6464;42.494;27.470;2022-07-06T17:10:40;101066.84;;;29.37;100.00
12801;BME280;6464;42.494;27.470;2022-07-06T17:13:07;101053.91;;;29.10;100.00
12801;BME280;6464;42.494;27.470;2022-07-06T17:15:34;101041.16;;;28.91;100.00
12801;BME280;6464;42.494;27.470;2022-07-06T17:18:02;101019.69;;;28.79;100.00
12801;BME280;6464;42.494;27.470;2022-07-06T17:20:28;100977.50;;;28.04;100.00
12801;BME280;6464;42.494;27.470;2022-07-06T17:22:57;100957.53;;;27.95;100.00
12801;BME280;6464;42.494;27.470;2022-07-06T17:25:24;100950.94;;;27.98;100.00
12801;BME280;6464;42.494;27.470;2022-07-06T17:27:52;100931.66;;;27.70;100.00
12801;BME280;6464;42.494;27.470;2022-07-06T17:30:20;100906.44;;;27.49;100.00
12801;BME280;6464;42.494;27.470;2022-07-06T17:32:47;100900.41;;;27.45;100.00
12801;BME280;6464;42.494;27.470;2022-07-06T17:35:14;100870.25;;;27.29;100.00
12801;BME280;6464;42.494;27.470;2022-07-06T17:37:42;100852.00;;;27.10;100.00
12801;BME280;6464;42.494;27.470;2022-07-06T17:40:10;100838.13;;;27.03;100.00
12801;BME280;6464;42.494;27.470;2022-07-06T17:42:38;100804.38;;;26.86;100.00
12801;BME280;6464;42.494;27.470;2022-07-06T17:45:07;100722.47;;;26.43;100.00
12801;BME280;6464;42.494;27.470;2022-07-06T17:47:34;100774.47;;;26.67;100.00
12801;BME280;6464;42.494;27.470;2022-07-06T17:50:01;100751.81;;;26.47;100.00
12801;BME280;6464;42.494;27.470;2022-07-06T17:52:28;100740.19;;;26.35;100.00
12801;BME280;6464;42.494;27.470;2022-07-06T17:54:56;100670.03;;;26.02;100.00
12801;BME280;6464;42.494;27.470;2022-07-06T17:57:22;100718.00;;;26.42;100.00
12801;BME280;6464;42.494;27.470;2022-07-06T17:59:50;100663.56;;;26.14;100.00
12801;BME280;6464;42.494;27.470;2022-07-06T18:02:18;100651.06;;;26.13;100.00
12801;BME280;6464;42.494;27.470;2022-07-06T18:04:45;100650.97;;;26.03;100.00
12801;BME280;6464;42.494;27.470;2022-07-06T18:07:12;100732.50;;;26.52;100.00
12801;BME280;6464;42.494;27.470;2022-07-06T18:09:40;100678.81;;;26.15;100.00
12801;BME280;6464;42.494;27.470;2022-07-06T18:12:08;100683.97;;;26.18;100.00
12801;BME280;6464;42.494;27.470;2022-07-06T18:14:35;100700.31;;;26.17;100.00
12801;BME280;6464;42.494;27.470;2022-07-06T18:17:02;100745.59;;;26.24;100.00
12801;BME280;6464;42.494;27.470;2022-07-06T18:19:30;100690.25;;;25.64;100.00
12801;BME280;6464;42.494;27.470;2022-07-06T18:21:58;100699.94;;;25.55;100.00
12801;BME280;6464;42.494;27.470;2022-07-06T18:24:25;100716.97;;;25.67;100.00
12801;BME280;6464;42.494;27.470;2022-07-06T18:26:52;100786.44;;;26.10;100.00
12801;BME280;6464;42.494;27.470;2022-07-06T18:29:19;100788.53;;;26.18;100.00
12801;BME280;6464;42.494;27.470;2022-07-06T18:31:46;100793.69;;;26.21;100.00
12801;BME280;6464;42.494;27.470;2022-07-06T18:34:14;100780.94;;;26.00;100.00
12801;BME280;6464;42.494;27.470;2022-07-06T18:36:42;100740.06;;;25.71;100.00
12801;BME280;6464;42.494;27.470;2022-07-06T18:39:13;100724.38;;;25.76;100.00
12801;BME280;6464;42.494;27.470;2022-07-06T18:41:41;100779.75;;;26.25;100.00
12801;BME280;6464;42.494;27.470;2022-07-06T18:44:08;100785.66;;;26.30;100.00
12801;BME280;6464;42.494;27.470;2022-07-06T18:46:35;100792.19;;;26.28;100.00
12801;BME280;6464;42.494;27.470;2022-07-06T18:49:03;100746.69;;;25.89;100.00
12801;BME280;6464;42.494;27.470;2022-07-06T18:51:30;100753.91;;;26.00;100.00
12801;BME280;6464;42.494;27.470;2022-07-06T18:54:00;100791.47;;;26.26;100.00
12801;BME280;6464;42.494;27.470;2022-07-06T18:56:27;100758.56;;;26.09;100.00
12801;BME280;6464;42.494;27.470;2022-07-06T18:58:54;100789.31;;;26.40;100.00
12801;BME280;6464;42.494;27.470;2022-07-06T19:01:23;100765.06;;;26.18;100.00
12801;BME280;6464;42.494;27.470;2022-07-06T19:03:52;100766.47;;;26.33;100.00
12801;BME280;6464;42.494;27.470;2022-07-06T19:06:20;100763.53;;;26.36;100.00
12801;BME280;6464;42.494;27.470;2022-07-06T19:08:47;100706.13;;;26.01;100.00
12801;BME280;6464;42.494;27.470;2022-07-06T19:11:15;100732.84;;;26.15;100.00
12801;BME280;6464;42.494;27.470;2022-07-06T19:13:42;100759.50;;;26.20;100.00
12801;BME280;6464;42.494;27.470;2022-07-06T19:16:09;100765.69;;;26.10;100.00
12801;BME280;6464;42.494;27.470;2022-07-06T19:18:37;100705.69;;;25.62;100.00
12801;BME280;6464;42.494;27.470;2022-07-06T19:21:04;100750.25;;;25.90;100.00
12801;BME280;6464;42.494;27.470;2022-07-06T19:23:31;100719.38;;;25.49;100.00
12801;BME280;6464;42.494;27.470;2022-07-06T19:25:58;100705.25;;;25.34;100.00
12801;BME280;6464;42.494;27.470;2022-07-06T19:28:27;100697.16;;;25.23;100.00
12801;BME280;6464;42.494;27.470;2022-07-06T19:30:54;100773.69;;;25.67;100.00
12801;BME280;6464;42.494;27.470;2022-07-06T19:33:21;100769.19;;;25.56;100.00
12801;BME280;6464;42.494;27.470;2022-07-06T19:35:50;100724.41;;;25.20;100.00
12801;BME280;6464;42.494;27.470;2022-07-06T19:38:17;100742.31;;;25.32;100.00